Time;durP1;ratioP1;P1;durP2;ratioP2;P2;SDS_P1;SDS_P2;PMS_P1;PMS_P2;Temp;Humidity;BMP_temperature;BMP_pressure;BME280_temperature;BME280_humidity;BME280_pressure;Samples;Min_cycle;Max_cycle;Signal;HPM_P1;HPM_P2
2021/03/05 00:00:30;;;;;;;25.37;10.20;;;;;;;1.32;100.00;98419.25;3743194;79;43144;-20
2021/03/05 00:05:37;;;;;;;26.60;10.93;;;;;;;1.34;100.00;98419.17;3686202;79;44039;-20
2021/03/05 00:10:44;;;;;;;27.53;10.57;;;;;;;1.38;100.00;98429.47;3725058;79;43693;-21
2021/03/05 00:15:50;;;;;;;26.53;11.13;;;;;;;1.41;100.00;98427.08;3716983;79;43442;-21
2021/03/05 00:20:56;;;;;;;28.77;11.37;;;;;;;1.43;100.00;98429.16;3719364;77;44463;-20
2021/03/05 00:26:02;;;;;;;29.77;11.80;;;;;;;1.45;100.00;98431.70;3712017;77;43029;-20
2021/03/05 00:31:08;;;;;;;35.20;12.73;;;;;;;1.43;100.00;98438.45;3708951;79;43399;-21
2021/03/05 00:36:14;;;;;;;35.90;13.17;;;;;;;1.44;100.00;98444.59;3716878;79;44483;-21
2021/03/05 00:41:20;;;;;;;36.70;13.63;;;;;;;1.43;100.00;98449.53;3714461;77;42881;-21
2021/03/05 00:46:26;;;;;;;33.60;13.20;;;;;;;1.47;100.00;98453.70;3659665;79;43374;-20
2021/03/05 00:51:34;;;;;;;44.03;13.93;;;;;;;1.46;100.00;98448.01;3714806;77;43673;-21
2021/03/05 00:56:41;;;;;;;37.53;14.80;;;;;;;1.49;100.00;98440.68;3722186;77;43592;-21
2021/03/05 01:01:47;;;;;;;38.57;15.63;;;;;;;1.53;100.00;98442.19;3714938;77;44484;-20
2021/03/05 01:06:53;;;;;;;45.77;15.10;;;;;;;1.52;100.00;98447.13;3695624;78;43975;-21
2021/03/05 01:11:59;;;;;;;41.67;15.20;;;;;;;1.54;100.00;98450.53;3735591;77;43173;-21
2021/03/05 01:17:06;;;;;;;40.37;14.70;;;;;;;1.51;100.00;98455.20;3736921;77;44054;-21
2021/03/05 01:22:12;;;;;;;34.47;13.87;;;;;;;1.51;100.00;98453.87;3717762;77;44264;-21
2021/03/05 01:27:18;;;;;;;35.80;13.17;;;;;;;1.51;100.00;98459.18;3727710;77;43341;-21
2021/03/05 01:32:24;;;;;;;33.03;11.67;;;;;;;1.52;100.00;98444.95;3735847;77;44672;-20
2021/03/05 01:37:31;;;;;;;31.87;11.70;;;;;;;1.54;100.00;98452.31;3732224;77;43995;-20
2021/03/05 01:47:31;;;;;;;30.87;12.10;;;;;;;1.59;100.00;98454.20;3959573;73;30592;-19
2021/03/05 01:52:37;;;;;;;29.27;11.47;;;;;;;1.54;100.00;98454.97;3927220;74;44511;-21
2021/03/05 01:57:44;;;;;;;26.87;10.17;;;;;;;1.48;100.00;98457.56;3920279;74;44542;-21
2021/03/05 02:02:49;;;;;;;29.97;10.87;;;;;;;1.45;100.00;98464.42;3912865;74;43691;-19
2021/03/05 02:07:55;;;;;;;28.57;11.33;;;;;;;1.50;100.00;98461.46;3915874;74;44453;-20
2021/03/05 02:13:01;;;;;;;36.30;13.77;;;;;;;1.50;100.00;98471.59;3920914;75;43353;-19
2021/03/05 02:18:11;;;;;;;41.23;13.67;;;;;;;1.47;100.00;98476.26;3915826;74;44105;-20
2021/03/05 02:24:00;;;;;;;45.37;14.97;;;;;;;1.50;100.00;98474.25;3911159;75;44839;-20
2021/03/05 02:29:54;;;;;;;42.87;14.30;;;;;;;1.48;100.00;98470.00;3906078;75;44098;-19
2021/03/05 02:35:01;;;;;;;39.40;14.07;;;;;;;1.57;100.00;98469.87;3907971;74;43966;-19
2021/03/05 02:40:11;;;;;;;40.93;14.93;;;;;;;1.63;100.00;98473.42;3931396;74;44514;-19
2021/03/05 02:45:19;;;;;;;45.63;15.57;;;;;;;1.63;100.00;98485.38;3908065;74;43465;-19
2021/03/05 02:50:27;;;;;;;52.43;17.50;;;;;;;1.65;100.00;98484.30;3750744;77;44300;-19
2021/03/05 02:55:36;;;;;;;48.57;16.80;;;;;;;1.73;100.00;98490.92;3878257;74;43682;-19
2021/03/05 03:00:43;;;;;;;47.23;17.40;;;;;;;1.72;100.00;98492.72;3875369;74;43674;-19
2021/03/05 03:05:51;;;;;;;44.17;16.97;;;;;;;1.69;100.00;98490.29;3878870;74;43660;-19
2021/03/05 03:10:58;;;;;;;39.03;15.33;;;;;;;1.69;100.00;98504.89;3884345;74;44111;-19
2021/03/05 03:16:05;;;;;;;34.90;13.37;;;;;;;1.61;100.00;98505.86;3888559;74;44830;-19
2021/03/05 03:21:11;;;;;;;28.63;12.87;;;;;;;1.66;100.00;98511.73;3883987;74;44081;-19
2021/03/05 03:26:17;;;;;;;23.33;10.50;;;;;;;1.58;100.00;98515.39;3885776;74;44520;-19
2021/03/05 03:31:23;;;;;;;20.63;9.50;;;;;;;1.51;100.00;98523.74;3877509;74;43378;-19
2021/03/05 03:36:30;;;;;;;19.10;9.00;;;;;;;1.50;100.00;98527.34;3871551;74;43734;-19
2021/03/05 03:41:38;;;;;;;17.70;8.47;;;;;;;1.50;100.00;98537.97;3875283;74;43337;-19
2021/03/05 03:46:48;;;;;;;16.20;8.03;;;;;;;1.50;100.00;98541.11;3883864;74;44026;-19
2021/03/05 03:51:57;;;;;;;17.03;7.43;;;;;;;1.47;100.00;98541.31;3881859;74;43469;-19
2021/03/05 03:57:06;;;;;;;17.93;7.50;;;;;;;1.40;100.00;98550.64;3891865;74;44066;-18
2021/03/05 04:02:13;;;;;;;16.13;7.73;;;;;;;1.46;100.00;98553.75;3892397;75;43991;-19
2021/03/05 04:07:21;;;;;;;18.33;8.00;;;;;;;1.46;100.00;98566.15;3886624;75;42971;-19
2021/03/05 04:12:29;;;;;;;16.77;7.97;;;;;;;1.48;100.00;98576.20;3901249;74;43384;-20
2021/03/05 04:17:35;;;;;;;17.10;8.73;;;;;;;1.43;100.00;98584.47;3886758;74;44056;-21
2021/03/05 04:22:42;;;;;;;16.37;7.93;;;;;;;1.40;100.00;98587.80;3827245;76;44132;-20
2021/03/05 04:33:02;;;;;;;12.43;6.53;;;;;;;1.39;100.00;98600.20;4000800;73;29391;-19
2021/03/05 04:38:08;;;;;;;23.30;9.53;;;;;;;1.28;100.00;98605.36;3934753;74;44063;-22
2021/03/05 04:43:14;;;;;;;18.40;8.30;;;;;;;1.15;100.00;98616.75;3940279;73;43716;-22
2021/03/05 04:48:20;;;;;;;16.63;7.57;;;;;;;1.05;100.00;98623.59;3933690;73;44056;-22
2021/03/05 04:53:26;;;;;;;21.10;8.53;;;;;;;1.07;100.00;98627.84;3935177;73;44480;-23
2021/03/05 04:58:33;;;;;;;15.47;7.83;;;;;;;1.00;100.00;98638.47;3939584;73;43295;-23
2021/03/05 05:03:39;;;;;;;13.63;6.97;;;;;;;0.87;100.00;98642.37;3934006;73;44543;-23
2021/03/05 05:08:45;;;;;;;15.40;7.03;;;;;;;0.78;100.00;98642.91;3941528;73;44421;-23
2021/03/05 05:13:51;;;;;;;24.87;9.67;;;;;;;0.76;100.00;98658.92;3952790;73;44087;-23
2021/03/05 05:18:57;;;;;;;30.23;11.80;;;;;;;0.75;100.00;98661.69;3924854;73;44032;-23
2021/03/05 05:24:04;;;;;;;34.57;13.80;;;;;;;0.66;100.00;98671.50;3911607;73;44127;-23
2021/03/05 05:29:10;;;;;;;38.87;15.23;;;;;;;0.60;100.00;98685.97;3939572;73;43032;-23
2021/03/05 05:34:17;;;;;;;40.90;15.03;;;;;;;0.57;100.00;98691.00;3848798;75;44059;-23
2021/03/05 05:39:24;;;;;;;38.30;15.10;;;;;;;0.50;100.00;98690.99;3903370;74;43670;-23
2021/03/05 05:44:30;;;;;;;41.40;16.33;;;;;;;0.51;100.00;98704.63;3914871;74;42887;-23
2021/03/05 05:49:38;;;;;;;37.40;14.80;;;;;;;0.56;100.00;98707.01;3895912;74;43392;-23
2021/03/05 05:54:48;;;;;;;36.37;15.33;;;;;;;0.52;100.00;98718.27;3778349;76;43488;-23
2021/03/05 05:59:54;;;;;;;31.63;14.70;;;;;;;0.51;100.00;98717.02;3907246;74;44422;-23
2021/03/05 06:05:02;;;;;;;27.70;13.20;;;;;;;0.48;100.00;98724.69;3901370;74;44023;-23
2021/03/05 06:10:10;;;;;;;29.03;11.27;;;;;;;0.49;100.00;98733.02;3881493;74;43714;-23
2021/03/05 06:15:21;;;;;;;25.27;11.20;;;;;;;0.47;100.00;98745.51;3887655;74;44033;-22
2021/03/05 06:20:28;;;;;;;27.07;12.17;;;;;;;0.48;100.00;98749.87;3914270;74;43744;-23
2021/03/05 06:25:37;;;;;;;28.03;12.20;;;;;;;0.42;100.00;98759.48;3907998;74;42935;-22
2021/03/05 06:30:43;;;;;;;26.57;11.70;;;;;;;0.42;100.00;98773.61;3894027;74;44167;-23
2021/03/05 06:35:50;;;;;;;26.13;11.57;;;;;;;0.42;100.00;98774.06;3905233;74;44071;-22
2021/03/05 06:41:00;;;;;;;28.13;12.60;;;;;;;0.45;100.00;98792.45;3902279;74;44177;-23
2021/03/05 06:46:06;;;;;;;28.70;12.97;;;;;;;0.42;100.00;98797.47;3890358;74;43673;-22
2021/03/05 06:51:13;;;;;;;24.97;11.77;;;;;;;0.40;100.00;98817.06;3919716;74;44429;-22
2021/03/05 06:56:29;;;;;;;23.47;11.83;;;;;;;0.41;100.00;98833.35;3906275;74;44086;-23
2021/03/05 07:01:53;;;;;;;26.53;11.97;;;;;;;0.42;100.00;98844.31;3908910;74;44027;-22
2021/03/05 07:07:04;;;;;;;20.93;10.73;;;;;;;0.46;100.00;98845.86;3911425;74;43738;-22
2021/03/05 07:12:12;;;;;;;21.23;10.00;;;;;;;0.47;100.00;98864.80;3904901;74;43463;-23
2021/03/05 07:17:20;;;;;;;23.63;10.30;;;;;;;0.49;100.00;98873.53;3908085;75;44042;-22
2021/03/05 07:22:28;;;;;;;24.57;10.87;;;;;;;0.53;100.00;98886.13;3898220;75;43437;-22
2021/03/05 07:27:38;;;;;;;24.53;10.93;;;;;;;0.61;100.00;98895.37;3911046;74;44496;-22
2021/03/05 07:32:48;;;;;;;23.77;10.57;;;;;;;0.52;100.00;98901.66;3895189;74;44055;-23
2021/03/05 07:37:59;;;;;;;21.93;10.97;;;;;;;0.51;100.00;98914.52;3900222;74;43362;-20
2021/03/05 07:43:06;;;;;;;19.27;9.17;;;;;;;0.92;100.00;98916.65;3915351;74;44011;-19
2021/03/05 07:48:14;;;;;;;21.07;9.80;;;;;;;0.52;100.00;98925.06;3899205;75;42557;-19
2021/03/05 07:53:20;;;;;;;24.77;10.57;;;;;;;0.55;100.00;98935.48;3902664;75;43678;-20
2021/03/05 07:58:47;;;;;;;21.90;10.80;;;;;;;0.51;100.00;98938.38;3902193;74;44585;-19
2021/03/05 08:03:56;;;;;;;21.03;10.30;;;;;;;0.41;100.00;98946.01;3885573;75;44053;-20
2021/03/05 08:09:09;;;;;;;20.67;9.60;;;;;;;0.40;100.00;98948.27;3884399;74;44041;-20
2021/03/05 08:14:26;;;;;;;18.20;8.30;;;;;;;0.45;100.00;98955.48;3911780;74;43702;-19
2021/03/05 08:19:40;;;;;;;15.63;8.10;;;;;;;0.39;100.00;98965.11;3891521;74;43400;-19
2021/03/05 08:24:47;;;;;;;15.57;7.23;;;;;;;0.45;100.00;98992.14;3906027;75;43467;-20
2021/03/05 08:29:56;;;;;;;12.23;5.60;;;;;;;0.47;100.00;98995.19;3900036;74;43384;-20
2021/03/05 08:35:03;;;;;;;16.20;8.50;;;;;;;0.36;100.00;99006.35;3914950;75;44049;-19
2021/03/05 08:40:31;;;;;;;14.90;7.63;;;;;;;0.60;100.00;99019.61;3905233;75;44050;-20
2021/03/05 08:45:41;;;;;;;15.00;8.43;;;;;;;0.63;100.00;99026.54;3929524;74;44037;-19
2021/03/05 08:50:47;;;;;;;15.97;9.10;;;;;;;0.68;100.00;99030.26;3914905;74;43111;-19
2021/03/05 08:55:55;;;;;;;10.23;4.93;;;;;;;0.79;100.00;99039.81;3908883;74;43396;-20
2021/03/05 09:01:01;;;;;;;7.00;3.60;;;;;;;0.78;100.00;99051.36;3928964;74;44097;-19
2021/03/05 09:06:14;;;;;;;10.23;4.07;;;;;;;0.70;100.00;99056.23;3909411;74;43685;-19
2021/03/05 09:11:19;;;;;;;6.90;3.73;;;;;;;0.87;100.00;99057.52;3918056;74;44043;-19
2021/03/05 09:16:25;;;;;;;8.73;2.90;;;;;;;0.86;100.00;99056.25;3932602;73;43723;-19
2021/03/05 09:21:31;;;;;;;7.77;3.50;;;;;;;1.00;100.00;99068.78;3911128;74;43345;-19
2021/03/05 09:26:36;;;;;;;4.77;2.40;;;;;;;1.13;100.00;99061.82;3905429;74;43192;-19
2021/03/05 09:31:42;;;;;;;4.83;2.70;;;;;;;1.13;100.00;99061.82;3919916;73;44494;-19
2021/03/05 09:36:48;;;;;;;4.57;2.70;;;;;;;1.13;100.00;99063.64;3920781;73;44070;-19
2021/03/05 09:41:54;;;;;;;6.50;2.70;;;;;;;1.33;100.00;99070.48;3931253;73;43656;-19
2021/03/05 09:46:59;;;;;;;4.60;2.30;;;;;;;1.32;100.00;99072.75;3923015;73;43704;-19
2021/03/05 09:52:06;;;;;;;5.10;3.00;;;;;;;1.36;96.13;99075.59;3921608;73;43685;-19
2021/03/05 09:57:13;;;;;;;5.57;2.73;;;;;;;1.40;100.00;99086.44;3863336;75;44057;-19
2021/03/05 10:02:20;;;;;;;5.17;2.67;;;;;;;1.39;100.00;99088.70;3926625;73;43453;-19
2021/03/05 10:07:26;;;;;;;6.40;2.50;;;;;;;1.57;100.00;99101.90;3925072;73;44466;-19
2021/03/05 10:12:32;;;;;;;4.33;2.30;;;;;;;1.62;100.00;99108.66;3916718;75;44061;-19
2021/03/05 10:17:41;;;;;;;4.63;2.80;;;;;;;1.52;83.45;99107.48;3919764;75;44784;-20
2021/03/05 10:22:52;;;;;;;5.60;2.10;;;;;;;1.57;95.47;99107.21;3848682;76;43688;-19
2021/03/05 10:27:58;;;;;;;6.37;2.37;;;;;;;1.74;92.85;99119.04;3907549;75;43715;-20
2021/03/05 10:33:04;;;;;;;5.17;2.27;;;;;;;1.92;93.80;99114.95;3935054;73;44089;-19
2021/03/05 10:38:10;;;;;;;4.63;1.70;;;;;;;1.88;77.52;99118.72;3862063;75;43686;-20
2021/03/05 10:43:16;;;;;;;2.93;1.80;;;;;;;2.31;87.28;99134.80;3836979;75;43347;-19
2021/03/05 10:48:22;;;;;;;3.13;1.60;;;;;;;2.27;85.67;99147.91;3837366;76;43327;-19
2021/03/05 10:53:28;;;;;;;3.60;2.00;;;;;;;2.25;76.90;99144.48;3829599;76;44014;-19
2021/03/05 10:58:34;;;;;;;3.57;1.80;;;;;;;2.29;82.45;99157.98;3836686;76;43711;-19
2021/03/05 11:03:40;;;;;;;3.30;1.90;;;;;;;2.41;70.60;99165.22;3829826;76;43690;-19
2021/03/05 11:08:45;;;;;;;4.10;1.50;;;;;;;2.43;74.79;99165.98;3833345;76;44557;-19
2021/03/05 11:13:51;;;;;;;4.03;1.60;;;;;;;2.63;75.79;99177.25;3931939;73;44771;-18
2021/03/05 11:18:57;;;;;;;2.67;1.70;;;;;;;2.72;77.51;99183.34;3853171;76;43469;-18
2021/03/05 11:24:04;;;;;;;3.17;1.67;;;;;;;2.86;67.35;99186.49;3844833;76;43290;-19
2021/03/05 11:29:10;;;;;;;2.80;1.73;;;;;;;2.81;76.63;99193.05;3817136;76;44472;-18
2021/03/05 11:34:16;;;;;;;3.80;1.90;;;;;;;2.36;65.97;99200.55;3824558;76;44121;-18
2021/03/05 11:39:22;;;;;;;3.53;1.80;;;;;;;2.93;76.59;99198.95;3896525;74;44126;-18
2021/03/05 11:44:29;;;;;;;3.60;2.17;;;;;;;2.94;76.39;99196.67;3898729;74;44358;-18
2021/03/05 11:49:34;;;;;;;4.17;2.47;;;;;;;2.66;63.47;99194.34;3887065;75;43480;-19
2021/03/05 11:54:40;;;;;;;6.00;4.33;;;;;;;2.71;69.15;99202.05;3891600;75;44711;-18
2021/03/05 11:59:46;;;;;;;3.13;2.00;;;;;;;2.51;64.89;99205.92;3892134;75;44041;-18
2021/03/05 12:04:52;;;;;;;3.80;2.10;;;;;;;2.25;62.81;99215.78;3897033;75;44122;-18
2021/03/05 12:09:58;;;;;;;4.10;3.40;;;;;;;2.54;64.51;99208.37;3893236;74;43471;-18
2021/03/05 12:15:04;;;;;;;4.83;2.87;;;;;;;2.34;63.30;99225.03;3832897;75;43306;-18
2021/03/05 12:20:12;;;;;;;3.57;2.17;;;;;;;2.48;68.20;99226.04;3811673;76;44006;-18
2021/03/05 12:25:19;;;;;;;3.13;1.90;;;;;;;2.81;67.60;99221.86;3917145;75;43438;-18
2021/03/05 12:30:26;;;;;;;3.37;2.03;;;;;;;2.97;71.74;99229.77;3893512;75;43384;-19
2021/03/05 12:35:32;;;;;;;2.30;2.00;;;;;;;3.24;73.49;99232.55;3897658;74;43368;-18
2021/03/05 12:40:39;;;;;;;2.37;1.43;;;;;;;2.78;65.00;99236.19;3897940;75;44205;-18
2021/03/05 12:45:45;;;;;;;1.83;1.57;;;;;;;2.50;69.61;99240.95;3913677;74;44095;-18
2021/03/05 12:50:51;;;;;;;1.40;1.27;;;;;;;2.60;63.48;99242.12;3907330;74;43730;-18
2021/03/05 12:55:57;;;;;;;1.97;1.40;;;;;;;2.84;58.84;99239.44;3894689;75;44148;-18
2021/03/05 13:01:03;;;;;;;5.00;2.27;;;;;;;3.12;61.09;99236.45;3892362;75;44148;-18
2021/03/05 13:06:10;;;;;;;1.80;1.70;;;;;;;3.69;60.36;99237.77;3914707;75;43701;-18
2021/03/05 13:11:16;;;;;;;1.97;1.43;;;;;;;3.61;62.95;99252.03;3888527;75;43304;-18
2021/03/05 13:16:22;;;;;;;1.60;1.40;;;;;;;2.98;61.03;99270.09;3892624;74;43953;-18
2021/03/05 13:21:28;;;;;;;1.90;1.50;;;;;;;2.68;61.71;99266.95;3897655;74;44078;-18
2021/03/05 13:26:34;;;;;;;4.47;1.30;;;;;;;3.37;73.10;99271.25;3898931;74;43094;-19
2021/03/05 13:31:40;;;;;;;1.90;1.33;;;;;;;4.04;66.48;99260.93;3896554;75;44051;-19
2021/03/05 13:36:49;;;;;;;1.37;1.10;;;;;;;4.46;64.88;99271.07;3904728;74;44384;-19
2021/03/05 13:41:54;;;;;;;2.50;1.20;;;;;;;3.54;54.50;99277.36;3908640;74;44133;-19
2021/03/05 13:47:01;;;;;;;2.00;1.23;;;;;;;3.46;60.97;99278.31;3841403;76;44076;-18
2021/03/05 13:52:08;;;;;;;2.83;1.33;;;;;;;3.47;60.37;99274.70;3837373;75;43978;-19
2021/03/05 13:57:14;;;;;;;2.10;1.50;;;;;;;3.69;62.12;99288.86;3826951;76;44019;-18
2021/03/05 14:02:20;;;;;;;3.43;1.80;;;;;;;3.49;51.89;99298.09;3820416;76;43690;-18
2021/03/05 14:07:26;;;;;;;3.50;2.00;;;;;;;3.32;53.79;99292.01;3825357;76;44019;-19
2021/03/05 14:12:33;;;;;;;2.90;1.70;;;;;;;4.17;60.23;99285.86;3840403;76;43045;-18
2021/03/05 14:17:39;;;;;;;3.83;1.87;;;;;;;4.05;60.41;99290.64;3849174;76;43737;-18
2021/03/05 14:22:45;;;;;;;2.50;1.80;;;;;;;3.48;58.91;99292.37;3820927;76;43292;-18
2021/03/05 14:27:51;;;;;;;2.93;2.03;;;;;;;3.36;65.24;99312.64;3822869;76;44085;-19
2021/03/05 14:32:57;;;;;;;2.23;1.80;;;;;;;3.68;62.68;99296.47;3849542;76;42908;-18
2021/03/05 14:38:04;;;;;;;3.53;2.30;;;;;;;4.09;54.42;99301.47;3819830;76;43682;-19
2021/03/05 14:43:10;;;;;;;3.20;1.80;;;;;;;3.88;53.64;99314.37;3888708;75;44085;-18
2021/03/05 14:48:16;;;;;;;4.27;1.80;;;;;;;4.04;52.48;99312.44;3890556;75;43380;-17
2021/03/05 14:53:23;;;;;;;3.43;2.07;;;;;;;3.88;54.12;99308.56;3885762;75;44089;-17
2021/03/05 14:58:30;;;;;;;3.13;2.00;;;;;;;4.55;52.73;99320.32;3816732;75;43689;-18
2021/03/05 15:03:38;;;;;;;4.47;2.20;;;;;;;4.42;53.44;99313.58;3891189;74;44139;-18
2021/03/05 15:08:44;;;;;;;2.70;2.10;;;;;;;5.03;55.45;99323.81;3893075;74;42841;-18
2021/03/05 15:13:51;;;;;;;5.27;2.40;;;;;;;4.73;52.96;99328.44;3892122;75;44060;-18
2021/03/05 15:18:56;;;;;;;3.10;2.40;;;;;;;4.75;52.65;99327.86;3824318;76;43437;-18
2021/03/05 15:24:03;;;;;;;3.17;2.20;;;;;;;4.66;54.23;99336.95;3820645;77;43246;-18
2021/03/05 15:29:09;;;;;;;4.63;2.30;;;;;;;4.97;57.89;99334.92;3892290;74;43669;-19
2021/03/05 15:34:15;;;;;;;5.33;2.40;;;;;;;5.02;54.53;99348.81;3893366;75;43343;-18
2021/03/05 15:39:22;;;;;;;2.43;1.80;;;;;;;5.40;51.88;99348.03;3836941;75;44074;-18
2021/03/05 15:44:29;;;;;;;3.67;1.90;;;;;;;4.89;54.34;99350.12;3906296;74;43412;-18
2021/03/05 15:49:35;;;;;;;3.83;2.07;;;;;;;4.12;53.53;99367.95;3898376;75;43298;-18
2021/03/05 15:54:41;;;;;;;4.30;2.20;;;;;;;3.54;55.08;99362.62;3897874;75;44170;-17
2021/03/05 15:59:47;;;;;;;3.07;2.00;;;;;;;3.24;57.60;99371.48;3902972;75;42141;-17
2021/03/05 16:04:53;;;;;;;4.40;2.20;;;;;;;2.96;58.56;99376.25;3900103;74;43268;-18
2021/03/05 16:10:00;;;;;;;3.10;2.03;;;;;;;2.83;58.96;99389.42;3916513;74;43730;-18
2021/03/05 16:15:08;;;;;;;3.03;1.90;;;;;;;3.08;61.46;99380.41;3926576;74;42914;-17
2021/03/05 16:20:18;;;;;;;3.43;2.00;;;;;;;3.26;59.17;99396.72;3900143;74;43077;-17
2021/03/05 16:25:24;;;;;;;4.97;2.20;;;;;;;3.38;58.24;99401.32;3910792;75;44049;-18
2021/03/05 16:30:30;;;;;;;4.13;2.10;;;;;;;3.24;54.27;99412.31;3910227;75;43464;-18
2021/03/05 16:35:37;;;;;;;3.90;2.10;;;;;;;3.46;55.39;99415.52;3889818;74;43383;-17
2021/03/05 16:40:44;;;;;;;5.43;2.20;;;;;;;3.24;58.40;99420.76;3921294;75;43721;-18
2021/03/05 16:45:50;;;;;;;3.53;1.90;;;;;;;3.29;55.95;99429.84;3921838;73;43725;-18
2021/03/05 16:50:56;;;;;;;2.60;2.00;;;;;;;3.25;60.23;99433.12;3937455;73;43675;-19
2021/03/05 16:56:02;;;;;;;3.07;1.93;;;;;;;3.19;61.02;99443.67;3939243;73;44067;-18
2021/03/05 17:01:09;;;;;;;4.77;1.90;;;;;;;2.80;60.75;99445.03;3923565;73;43395;-18
2021/03/05 17:06:15;;;;;;;2.80;2.17;;;;;;;2.62;66.68;99450.91;3846662;75;43299;-20
2021/03/05 17:11:21;;;;;;;2.10;1.90;;;;;;;2.26;64.04;99454.64;3819928;75;43822;-19
2021/03/05 17:16:27;;;;;;;5.70;1.90;;;;;;;2.09;64.93;99468.35;3656969;81;44460;-19
2021/03/05 17:21:34;;;;;;;3.03;1.80;;;;;;;1.89;65.98;99479.18;3661273;79;43404;-19
2021/03/05 17:26:40;;;;;;;3.70;1.90;;;;;;;1.75;67.32;99490.53;3661298;79;44048;-19
2021/03/05 17:31:46;;;;;;;3.33;1.80;;;;;;;1.60;69.03;99487.72;3656356;81;44141;-19
2021/03/05 17:36:52;;;;;;;3.77;1.87;;;;;;;1.50;69.14;99499.75;3645077;80;44041;-19
2021/03/05 17:41:59;;;;;;;2.43;1.77;;;;;;;1.41;69.13;99505.52;3639230;80;43682;-17
2021/03/05 17:47:05;;;;;;;2.50;1.63;;;;;;;1.35;71.29;99526.13;3637310;80;44083;-17
2021/03/05 17:52:11;;;;;;;2.40;1.70;;;;;;;1.31;71.95;99521.04;3639085;80;43427;-17
2021/03/05 17:57:17;;;;;;;4.30;2.10;;;;;;;1.23;70.49;99524.91;3651333;80;44069;-18
2021/03/05 18:02:22;;;;;;;4.10;1.70;;;;;;;1.12;70.17;99537.84;3646699;80;43477;-17
2021/03/05 18:07:30;;;;;;;2.87;1.70;;;;;;;1.10;71.46;99542.39;3638404;81;44438;-18
2021/03/05 18:12:35;;;;;;;2.60;1.57;;;;;;;1.06;69.95;99552.27;3638241;80;44085;-18
2021/03/05 18:17:43;;;;;;;2.73;1.70;;;;;;;1.05;70.20;99551.03;3638508;80;44098;-18
2021/03/05 18:22:50;;;;;;;4.57;1.70;;;;;;;0.97;69.65;99554.52;3640893;80;44078;-18
2021/03/05 18:27:58;;;;;;;2.93;1.60;;;;;;;1.01;71.98;99554.75;3635681;80;43540;-17
2021/03/05 18:33:04;;;;;;;4.37;2.00;;;;;;;0.88;70.31;99557.98;3643190;80;42522;-18
2021/03/05 18:38:11;;;;;;;4.20;2.60;;;;;;;0.83;74.60;99568.41;3649332;79;44123;-18
2021/03/05 18:43:18;;;;;;;8.27;5.03;;;;;;;0.68;78.12;99569.53;3661535;79;43271;-17
2021/03/05 18:48:24;;;;;;;3.97;3.03;;;;;;;0.45;85.50;99579.84;3658838;80;44470;-16
2021/03/05 18:53:30;;;;;;;5.10;3.00;;;;;;;0.27;90.01;99589.02;3661444;80;44029;-16
2021/03/05 18:58:36;;;;;;;3.10;2.23;;;;;;;0.08;93.72;99597.34;3661350;81;43673;-17
2021/03/05 19:03:42;;;;;;;4.03;2.60;;;;;;;-0.08;96.45;99605.09;3681929;79;44876;-17
2021/03/05 19:08:48;;;;;;;4.67;2.30;;;;;;;-0.30;100.00;99617.06;3662906;79;44692;-17
2021/03/05 19:13:53;;;;;;;5.17;2.70;;;;;;;-0.35;100.00;99623.39;3662731;79;43987;-17
2021/03/05 19:18:59;;;;;;;5.37;3.03;;;;;;;-0.42;98.97;99621.05;3661715;79;44063;-17
2021/03/05 19:24:07;;;;;;;4.97;2.77;;;;;;;-0.53;98.72;99630.30;3660287;79;43294;-17
2021/03/05 19:29:13;;;;;;;5.77;3.30;;;;;;;-0.58;97.72;99629.59;3658402;79;44059;-16
2021/03/05 19:34:19;;;;;;;8.37;4.27;;;;;;;-0.64;96.13;99631.18;3664018;79;43436;-17
2021/03/05 19:39:25;;;;;;;8.73;3.80;;;;;;;-0.71;96.69;99645.11;3665316;79;43714;-17
2021/03/05 19:44:31;;;;;;;5.93;3.23;;;;;;;-0.75;99.18;99648.78;3671168;79;43365;-17
2021/03/05 19:49:37;;;;;;;6.77;3.63;;;;;;;-0.86;100.00;99645.69;3663517;79;43478;-17
2021/03/05 19:54:43;;;;;;;6.03;3.43;;;;;;;-0.93;100.00;99651.67;3663040;79;43725;-17
2021/03/05 19:59:49;;;;;;;5.10;3.33;;;;;;;-1.00;100.00;99660.30;3662610;79;44059;-17
2021/03/05 20:04:55;;;;;;;6.47;3.10;;;;;;;-1.06;100.00;99660.55;3660356;81;44129;-18
2021/03/05 20:10:01;;;;;;;6.37;3.90;;;;;;;-1.13;100.00;99666.99;3660160;79;43999;-17
2021/03/05 20:15:09;;;;;;;6.97;3.50;;;;;;;-1.24;100.00;99673.98;3675717;79;43550;-17
2021/03/05 20:20:16;;;;;;;6.93;3.80;;;;;;;-1.28;100.00;99670.59;3659517;79;43488;-17
2021/03/05 20:25:22;;;;;;;6.40;4.37;;;;;;;-1.22;100.00;99680.52;3654116;80;43720;-17
2021/03/05 20:30:30;;;;;;;5.20;3.50;;;;;;;-1.25;100.00;99684.16;3656459;81;44092;-17
2021/03/05 20:35:36;;;;;;;5.67;3.13;;;;;;;-1.35;100.00;99679.64;3658605;80;43695;-17
2021/03/05 20:40:44;;;;;;;5.97;3.43;;;;;;;-1.51;100.00;99691.69;3658467;79;43417;-19
2021/03/05 20:45:52;;;;;;;6.40;3.63;;;;;;;-1.47;100.00;99695.97;3660091;79;43726;-17
2021/03/05 20:50:59;;;;;;;6.40;3.77;;;;;;;-1.40;100.00;99706.72;3659066;79;43342;-17
2021/03/05 20:56:05;;;;;;;5.50;3.50;;;;;;;-1.41;100.00;99704.52;3660743;79;43285;-17
2021/03/05 21:01:12;;;;;;;7.13;3.60;;;;;;;-1.44;100.00;99704.65;3659039;80;44524;-17
2021/03/05 21:06:18;;;;;;;5.87;3.40;;;;;;;-1.50;100.00;99711.92;3658205;80;43721;-17
2021/03/05 21:11:24;;;;;;;4.20;3.10;;;;;;;-1.57;100.00;99713.44;3668089;79;43510;-17
2021/03/05 21:16:30;;;;;;;6.93;3.87;;;;;;;-1.62;100.00;99730.38;3660022;81;43342;-17
2021/03/05 21:21:37;;;;;;;7.03;4.17;;;;;;;-1.64;100.00;99726.91;3658662;79;43371;-18
2021/03/05 21:26:44;;;;;;;5.90;3.63;;;;;;;-1.69;100.00;99731.50;3658864;79;26467;-17
2021/03/05 21:31:51;;;;;;;7.27;3.67;;;;;;;-1.74;100.00;99745.72;3659776;80;44713;-17
2021/03/05 21:36:56;;;;;;;5.90;3.67;;;;;;;-1.81;100.00;99738.05;3658449;80;44055;-17
2021/03/05 21:42:03;;;;;;;6.47;3.77;;;;;;;-1.84;100.00;99751.38;3663679;79;43335;-17
2021/03/05 21:47:09;;;;;;;6.60;4.00;;;;;;;-1.91;100.00;99755.52;3660250;81;44037;-17
2021/03/05 21:52:15;;;;;;;6.67;3.87;;;;;;;-1.95;100.00;99759.20;3660288;80;44439;-16
2021/03/05 21:57:21;;;;;;;6.53;4.10;;;;;;;-1.99;100.00;99768.12;3660732;79;43381;-16
2021/03/05 22:02:27;;;;;;;7.53;5.17;;;;;;;-2.08;100.00;99766.63;3657055;79;42619;-16
2021/03/05 22:07:33;;;;;;;8.77;5.20;;;;;;;-2.11;100.00;99769.34;3659365;80;43586;-17
2021/03/05 22:12:38;;;;;;;9.30;5.90;;;;;;;-2.17;100.00;99777.00;3662742;79;44610;-18
2021/03/05 22:17:44;;;;;;;11.47;5.40;;;;;;;-2.25;100.00;99779.02;3659572;81;44791;-17
2021/03/05 22:22:51;;;;;;;9.23;4.97;;;;;;;-2.27;100.00;99782.63;3655011;81;43975;-17
2021/03/05 22:27:56;;;;;;;8.93;5.83;;;;;;;-2.36;100.00;99786.41;3658923;80;44773;-17
2021/03/05 22:33:02;;;;;;;21.40;12.00;;;;;;;-2.52;100.00;99784.21;3659174;79;44042;-18
2021/03/05 22:38:08;;;;;;;13.00;5.10;;;;;;;-2.55;100.00;99784.33;3659937;79;44052;-17
2021/03/05 22:43:14;;;;;;;8.60;5.33;;;;;;;-2.61;100.00;99784.95;3659801;81;43358;-17
2021/03/05 22:48:20;;;;;;;10.23;4.90;;;;;;;-2.73;100.00;99782.20;3660510;81;43191;-17
2021/03/05 22:53:27;;;;;;;9.97;5.47;;;;;;;-2.73;100.00;99784.84;3659726;80;43682;-17
2021/03/05 22:58:33;;;;;;;8.77;5.33;;;;;;;-2.71;100.00;99790.94;3657639;81;43143;-17
2021/03/05 23:03:39;;;;;;;8.00;5.07;;;;;;;-2.72;100.00;99788.77;3659224;79;44542;-16
2021/03/05 23:08:45;;;;;;;8.00;4.80;;;;;;;-2.77;100.00;99784.53;3660838;79;43690;-17
2021/03/05 23:13:51;;;;;;;8.77;5.50;;;;;;;-2.79;100.00;99789.39;3657725;81;44172;-16
2021/03/05 23:18:56;;;;;;;7.37;4.60;;;;;;;-2.82;100.00;99794.74;3659847;81;43751;-17
2021/03/05 23:24:04;;;;;;;11.20;7.00;;;;;;;-2.85;100.00;99793.50;3660176;81;44002;-17
2021/03/05 23:29:10;;;;;;;8.80;5.03;;;;;;;-2.89;100.00;99802.43;3656360;80;42982;-17
2021/03/05 23:34:15;;;;;;;8.63;4.53;;;;;;;-2.96;100.00;99804.80;3660146;79;44144;-17
2021/03/05 23:39:21;;;;;;;8.03;4.50;;;;;;;-3.01;100.00;99810.20;3659582;79;43617;-17
2021/03/05 23:44:27;;;;;;;8.00;5.00;;;;;;;-3.10;100.00;99809.98;3659691;79;42989;-17
2021/03/05 23:49:33;;;;;;;9.30;4.37;;;;;;;-3.13;100.00;99811.84;3659791;80;42936;-17
2021/03/05 23:54:39;;;;;;;8.00;4.57;;;;;;;-3.19;100.00;99812.88;3660400;80;44045;-17
2021/03/05 23:59:45;;;;;;;10.40;4.70;;;;;;;-3.19;100.00;99822.56;3660099;81;44096;-17
